Time,TemperatureF,DewpointF,PressureIn,WindDirection,WindDirectionDegrees,WindSpeedMPH,WindSpeedGustMPH,Humidity,HourlyPrecipIn,Conditions,Clouds,dailyrainin,SoftwareType,DateUTC
2013-01-20 08:10:00,11.3,-3.3,30.60,West,270,0.0,0.0,51,0.00,,---,0.00,VWS V14.01,2013-01-20 15:10:00,
2013-01-20 08:23:00,11.4,-3.2,30.60,West,262,0.0,0.0,51,0.00,,---,0.00,VWS V14.01,2013-01-20 15:23:00,
2013-01-20 08:25:00,12.1,-2.5,30.59,West,262,0.0,1.0,51,0.00,,---,0.00,VWS V14.01,2013-01-20 15:25:00,
2013-01-20 08:30:00,13.8,-1.8,30.59,West,261,0.0,1.0,49,0.00,,---,0.00,VWS V14.01,2013-01-20 15:30:00,
2013-01-20 08:35:00,15.8,-0.9,30.57,West,261,0.0,0.0,47,0.00,,---,0.00,VWS V14.01,2013-01-20 15:35:00,
2013-01-20 08:40:00,17.9,-0.3,30.56,West,262,4.0,5.0,44,0.00,,---,0.00,VWS V14.01,2013-01-20 15:40:00,
2013-01-20 08:45:00,19.7,0.3,30.52,WSW,258,0.0,5.0,42,0.00,,---,0.00,VWS V14.01,2013-01-20 15:45:00,
2013-01-20 08:50:00,21.3,0.8,30.52,WSW,257,0.0,0.0,40,0.00,,---,0.00,VWS V14.01,2013-01-20 15:50:00,
2013-01-20 08:55:00,23.0,1.8,30.50,WSW,258,0.0,1.0,39,0.00,,---,0.00,VWS V14.01,2013-01-20 15:55:00,
2013-01-20 09:00:00,24.5,2.0,30.49,WSW,258,0.0,0.0,37,0.00,,---,0.00,VWS V14.01,2013-01-20 16:00:00,
2013-01-20 09:05:00,25.6,2.4,30.49,WSW,257,0.0,0.0,36,0.00,,---,0.00,VWS V14.01,2013-01-20 16:05:00,
2013-01-20 09:11:00,25.9,3.2,30.50,WSW,258,0.0,0.0,37,0.00,,---,0.00,VWS V14.01,2013-01-20 16:11:00,
2013-01-20 09:16:00,25.8,4.3,30.49,WSW,257,0.0,1.0,39,0.00,,---,0.00,VWS V14.01,2013-01-20 16:16:00,
2013-01-20 09:21:00,25.5,5.1,30.50,WSW,258,1.0,1.0,41,0.00,,---,0.00,VWS V14.01,2013-01-20 16:21:00,
2013-01-20 09:25:00,25.8,5.4,30.50,WSW,258,0.0,2.0,41,0.00,,---,0.00,VWS V14.01,2013-01-20 16:25:00,
2013-01-20 09:30:00,26.6,5.6,30.50,WSW,257,0.0,2.0,40,0.00,,---,0.00,VWS V14.01,2013-01-20 16:30:00,
2013-01-20 09:35:00,27.6,5.3,30.48,WSW,258,1.0,2.0,38,0.00,,---,0.00,VWS V14.01,2013-01-20 16:35:00,
2013-01-20 09:40:00,29.0,7.2,30.46,WSW,257,2.0,4.0,39,0.00,,---,0.00,VWS V14.01,2013-01-20 16:40:00,
2013-01-20 09:45:00,29.9,7.4,30.46,WSW,257,0.0,3.0,38,0.00,,---,0.00,VWS V14.01,2013-01-20 16:45:00,
2013-01-20 09:50:00,30.6,6.8,30.46,WSW,257,1.0,5.0,36,0.00,,---,0.00,VWS V14.01,2013-01-20 16:50:00,
2013-01-20 09:55:00,31.7,6.6,30.45,WSW,257,0.0,2.0,34,0.00,,---,0.00,VWS V14.01,2013-01-20 16:55:00,
2013-01-20 10:00:00,32.8,8.2,30.43,WSW,257,0.0,0.0,35,0.00,,---,0.00,VWS V14.01,2013-01-20 17:00:00,
2013-01-20 10:06:00,33.1,8.4,30.43,WSW,257,2.0,2.0,35,0.00,,---,0.00,VWS V14.01,2013-01-20 17:06:00,
2013-01-20 10:11:00,33.1,8.4,30.41,WSW,257,0.0,0.0,35,0.00,,---,0.00,VWS V14.01,2013-01-20 17:11:00,
2013-01-20 10:16:00,33.4,8.7,30.41,WSW,257,0.0,2.0,35,0.00,,---,0.00,VWS V14.01,2013-01-20 17:16:00,
2013-01-20 10:21:00,33.8,8.4,30.41,WSW,257,2.0,2.0,34,0.00,,---,0.00,VWS V14.01,2013-01-20 17:21:00,
2013-01-20 10:26:00,34.4,8.9,30.41,WSW,257,0.0,0.0,34,0.00,,---,0.00,VWS V14.01,2013-01-20 17:26:00,
2013-01-20 10:31:00,34.9,8.1,30.40,WSW,257,4.0,4.0,32,0.00,,---,0.00,VWS V14.01,2013-01-20 17:31:00,
2013-01-20 10:36:00,35.3,9.8,30.40,WSW,256,1.0,4.0,34,0.00,,---,0.00,VWS V14.01,2013-01-20 17:36:00,
2013-01-20 10:41:00,35.3,12.8,30.39,WSW,257,2.0,4.0,39,0.00,,---,0.00,VWS V14.01,2013-01-20 17:41:00,
2013-01-20 10:46:00,35.1,13.2,30.39,WSW,256,0.0,0.0,40,0.00,,---,0.00,VWS V14.01,2013-01-20 17:46:00,
2013-01-20 10:51:00,35.8,12.1,30.39,WSW,257,0.0,0.0,37,0.00,,---,0.00,VWS V14.01,2013-01-20 17:51:00,
2013-01-20 10:56:00,37.1,12.6,30.36,WSW,256,0.0,0.0,36,0.00,,---,0.00,VWS V14.01,2013-01-20 17:56:00,
2013-01-20 11:01:00,38.1,12.2,30.36,WSW,257,0.0,0.0,34,0.00,,---,0.00,VWS V14.01,2013-01-20 18:01:00,
2013-01-20 11:06:00,39.2,12.5,30.34,WSW,257,1.0,1.0,33,0.00,,---,0.00,VWS V14.01,2013-01-20 18:06:00,
2013-01-20 11:11:00,39.8,12.4,30.36,WSW,257,1.0,1.0,32,0.00,,---,0.00,VWS V14.01,2013-01-20 18:11:00,
2013-01-20 11:16:00,39.9,9.4,30.35,WSW,257,0.0,4.0,28,0.00,,---,0.00,VWS V14.01,2013-01-20 18:16:00,
2013-01-20 11:21:00,40.1,8.8,30.35,WSW,257,2.0,3.0,27,0.00,,---,0.00,VWS V14.01,2013-01-20 18:21:00,
2013-01-20 11:26:00,40.1,6.2,30.35,WSW,257,1.0,1.0,24,0.00,,---,0.00,VWS V14.01,2013-01-20 18:26:00,
2013-01-20 11:31:00,40.5,5.6,30.34,WSW,257,0.0,1.0,23,0.00,,---,0.00,VWS V14.01,2013-01-20 18:31:00,
2013-01-20 11:36:00,41.0,6.1,30.34,WSW,257,0.0,1.0,23,0.00,,---,0.00,VWS V14.01,2013-01-20 18:36:00,
2013-01-20 11:41:00,41.6,4.6,30.32,WSW,257,2.0,2.0,21,0.00,,---,0.00,VWS V14.01,2013-01-20 18:41:00,
2013-01-20 11:46:00,41.6,3.5,30.31,WSW,256,0.0,4.0,20,0.00,,---,0.00,VWS V14.01,2013-01-20 18:46:00,
2013-01-20 11:51:00,41.7,4.7,30.31,WSW,257,0.0,1.0,21,0.00,,---,0.00,VWS V14.01,2013-01-20 18:51:00,
2013-01-20 11:56:00,41.4,4.4,30.31,WSW,256,1.0,4.0,21,0.00,,---,0.00,VWS V14.01,2013-01-20 18:56:00,
2013-01-20 12:01:00,41.2,3.2,30.32,WSW,257,4.0,5.0,20,0.00,,---,0.00,VWS V14.01,2013-01-20 19:01:00,
2013-01-20 12:06:00,41.6,5.6,30.30,WSW,257,0.0,2.0,22,0.00,,---,0.00,VWS V14.01,2013-01-20 19:06:00,
2013-01-20 12:11:00,42.0,5.9,30.29,WSW,257,0.0,2.0,22,0.00,,---,0.00,VWS V14.01,2013-01-20 19:11:00,
2013-01-20 12:16:00,42.0,7.8,30.28,WSW,257,1.0,4.0,24,0.00,,---,0.00,VWS V14.01,2013-01-20 19:16:00,
2013-01-20 12:21:00,42.1,8.8,30.28,WSW,257,1.0,2.0,25,0.00,,---,0.00,VWS V14.01,2013-01-20 19:21:00,
2013-01-20 12:26:00,42.0,6.9,30.28,WSW,257,1.0,2.0,23,0.00,,---,0.00,VWS V14.01,2013-01-20 19:26:00,
2013-01-20 12:31:00,42.3,6.2,30.28,WSW,257,1.0,3.0,22,0.00,,---,0.00,VWS V14.01,2013-01-20 19:31:00,
2013-01-20 12:36:00,42.9,5.7,30.27,WSW,257,0.0,1.0,21,0.00,,---,0.00,VWS V14.01,2013-01-20 19:36:00,
2013-01-20 12:41:00,43.3,3.8,30.28,WSW,257,0.0,0.0,19,0.00,,---,0.00,VWS V14.01,2013-01-20 19:41:00,
2013-01-20 12:46:00,43.7,5.3,30.25,WSW,257,0.0,0.0,20,0.00,,---,0.00,VWS V14.01,2013-01-20 19:46:00,
2013-01-20 12:52:00,44.2,5.7,30.25,WSW,257,1.0,2.0,20,0.00,,---,0.00,VWS V14.01,2013-01-20 19:52:00,
2013-01-20 12:57:00,44.1,4.5,30.25,WSW,257,0.0,2.0,19,0.00,,---,0.00,VWS V14.01,2013-01-20 19:57:00,
2013-01-20 13:02:00,44.1,3.3,30.25,WSW,257,0.0,0.0,18,0.00,,---,0.00,VWS V14.01,2013-01-20 20:02:00,
2013-01-20 13:07:00,44.5,3.7,30.26,WSW,257,0.0,1.0,18,0.00,,---,0.00,VWS V14.01,2013-01-20 20:07:00,
2013-01-20 13:12:00,44.6,6.0,30.26,WSW,257,3.0,5.0,20,0.00,,---,0.00,VWS V14.01,2013-01-20 20:12:00,
2013-01-20 13:17:00,44.6,4.9,30.25,WSW,257,1.0,2.0,19,0.00,,---,0.00,VWS V14.01,2013-01-20 20:17:00,
2013-01-20 13:22:00,44.6,3.7,30.26,WSW,257,0.0,2.0,18,0.00,,---,0.00,VWS V14.01,2013-01-20 20:22:00,
2013-01-20 13:27:00,44.9,4.0,30.25,WSW,257,1.0,2.0,18,0.00,,---,0.00,VWS V14.01,2013-01-20 20:27:00,
2013-01-20 13:32:00,45.5,4.5,30.25,WSW,257,0.0,2.0,18,0.00,,---,0.00,VWS V14.01,2013-01-20 20:32:00,
2013-01-20 13:37:00,46.3,3.9,30.24,WSW,257,3.0,4.0,17,0.00,,---,0.00,VWS V14.01,2013-01-20 20:37:00,
2013-01-20 13:42:00,46.2,3.8,30.24,WSW,257,2.0,4.0,17,0.00,,---,0.00,VWS V14.01,2013-01-20 20:42:00,
2013-01-20 13:47:00,45.3,1.8,30.25,WSW,257,1.0,3.0,16,0.00,,---,0.00,VWS V14.01,2013-01-20 20:47:00,
2013-01-20 13:52:00,45.6,3.3,30.23,WSW,257,2.0,2.0,17,0.00,,---,0.00,VWS V14.01,2013-01-20 20:52:00,
2013-01-20 13:57:00,46.0,3.6,30.23,WSW,257,1.0,3.0,17,0.00,,---,0.00,VWS V14.01,2013-01-20 20:57:00,
2013-01-20 14:02:00,46.4,4.0,30.23,WSW,257,2.0,2.0,17,0.00,,---,0.00,VWS V14.01,2013-01-20 21:02:00,
2013-01-20 14:07:00,46.3,5.1,30.18,WSW,257,2.0,2.0,18,0.00,,---,0.00,VWS V14.01,2013-01-20 21:07:00,
2013-01-20 14:12:00,46.5,6.5,30.16,WSW,257,0.0,2.0,19,0.00,,---,0.00,VWS V14.01,2013-01-20 21:12:00,
2013-01-20 14:17:00,46.9,6.8,30.16,WSW,257,0.0,3.0,19,0.00,,---,0.00,VWS V14.01,2013-01-20 21:17:00,
2013-01-20 14:22:00,47.4,4.8,30.16,WSW,257,2.0,6.0,17,0.00,,---,0.00,VWS V14.01,2013-01-20 21:22:00,
2013-01-20 14:27:00,47.4,4.8,30.16,WSW,257,4.0,5.0,17,0.00,,---,0.00,VWS V14.01,2013-01-20 21:27:00,
2013-01-20 14:32:00,47.3,7.1,30.16,WSW,257,5.0,5.0,19,0.00,,---,0.00,VWS V14.01,2013-01-20 21:32:00,
2013-01-20 14:37:00,47.5,7.3,30.16,WSW,257,0.0,1.0,19,0.00,,---,0.00,VWS V14.01,2013-01-20 21:37:00,
2013-01-20 14:42:00,48.0,8.9,30.16,WSW,257,0.0,1.0,20,0.00,,---,0.00,VWS V14.01,2013-01-20 21:42:00,
2013-01-20 14:47:00,48.1,7.8,30.15,WSW,257,0.0,4.0,19,0.00,,---,0.00,VWS V14.01,2013-01-20 21:47:00,
2013-01-20 14:52:00,48.2,11.1,30.16,WSW,257,1.0,2.0,22,0.00,,---,0.00,VWS V14.01,2013-01-20 21:52:00,
2013-01-20 14:57:00,48.3,12.2,30.15,WSW,257,0.0,2.0,23,0.00,,---,0.00,VWS V14.01,2013-01-20 21:57:00,
2013-01-20 15:02:00,48.2,11.1,30.15,WSW,257,0.0,2.0,22,0.00,,---,0.00,VWS V14.01,2013-01-20 22:02:00,
2013-01-20 15:07:00,47.6,14.4,30.22,WSW,257,2.0,3.0,26,0.00,,---,0.00,VWS V14.01,2013-01-20 22:07:00,
2013-01-20 15:12:00,47.1,14.0,30.24,WSW,257,0.0,5.0,26,0.00,,---,0.00,VWS V14.01,2013-01-20 22:12:00,
2013-01-20 15:17:00,47.0,13.9,30.24,WSW,257,0.0,1.0,26,0.00,,---,0.00,VWS V14.01,2013-01-20 22:17:00,
2013-01-20 15:22:00,47.2,13.2,30.24,WSW,256,0.0,2.0,25,0.00,,---,0.00,VWS V14.01,2013-01-20 22:22:00,
2013-01-20 15:27:00,47.3,14.2,30.24,WSW,257,4.0,5.0,26,0.00,,---,0.00,VWS V14.01,2013-01-20 22:27:00,
2013-01-20 15:32:00,46.9,15.5,30.24,WSW,257,5.0,6.0,28,0.00,,---,0.00,VWS V14.01,2013-01-20 22:32:00,
2013-01-20 15:37:00,45.6,18.2,30.23,WSW,257,5.0,7.0,33,0.00,,---,0.00,VWS V14.01,2013-01-20 22:37:00,
2013-01-20 15:42:00,44.7,18.1,30.25,WSW,256,4.0,6.0,34,0.00,,---,0.00,VWS V14.01,2013-01-20 22:42:00,
2013-01-20 15:47:00,44.2,18.3,30.25,WSW,257,4.0,5.0,35,0.00,,---,0.00,VWS V14.01,2013-01-20 22:47:00,
2013-01-20 15:52:00,44.0,17.5,30.25,WSW,257,0.0,2.0,34,0.00,,---,0.00,VWS V14.01,2013-01-20 22:52:00,
2013-01-20 15:57:00,43.8,18.0,30.25,WSW,257,2.0,6.0,35,0.00,,---,0.00,VWS V14.01,2013-01-20 22:57:00,
2013-01-20 16:02:00,43.4,18.2,30.27,WSW,256,2.0,5.0,36,0.00,,---,0.00,VWS V14.01,2013-01-20 23:02:00,
2013-01-20 16:07:00,43.1,18.6,30.26,WSW,252,0.0,1.0,37,0.00,,---,0.00,VWS V14.01,2013-01-20 23:07:00,
2013-01-20 16:12:00,43.0,17.9,30.26,WSW,252,0.0,2.0,36,0.00,,---,0.00,VWS V14.01,2013-01-20 23:12:00,
2013-01-20 16:17:00,42.8,17.7,30.26,WSW,252,0.0,5.0,36,0.00,,---,0.00,VWS V14.01,2013-01-20 23:17:00,
2013-01-20 16:22:00,42.4,16.0,30.28,WSW,252,1.0,5.0,34,0.00,,---,0.00,VWS V14.01,2013-01-20 23:22:00,
2013-01-20 16:27:00,41.9,15.6,30.28,WSW,241,1.0,5.0,34,0.00,,---,0.00,VWS V14.01,2013-01-20 23:27:00,
2013-01-20 16:32:00,41.5,13.9,30.28,SW,234,1.0,6.0,32,0.00,,---,0.00,VWS V14.01,2013-01-20 23:32:00,
2013-01-20 16:37:00,41.2,14.3,30.28,SW,233,5.0,5.0,33,0.00,,---,0.00,VWS V14.01,2013-01-20 23:37:00,
2013-01-20 16:42:00,40.3,14.8,30.28,SW,221,3.0,8.0,35,0.00,,---,0.00,VWS V14.01,2013-01-20 23:42:00,
2013-01-20 16:47:00,38.9,14.9,30.31,SW,221,0.0,5.0,37,0.00,,---,0.00,VWS V14.01,2013-01-20 23:47:00,
2013-01-20 16:52:00,37.6,15.5,30.32,SW,221,0.0,5.0,40,0.00,,---,0.00,VWS V14.01,2013-01-20 23:52:00,
2013-01-20 16:57:00,36.3,14.3,30.32,SW,221,0.0,8.0,40,0.00,,---,0.00,VWS V14.01,2013-01-20 23:57:00,
2013-01-20 17:02:00,35.7,14.3,30.34,SW,221,2.0,6.0,41,0.00,,---,0.00,VWS V14.01,2013-01-21 00:02:00,
2013-01-20 17:07:00,35.2,14.4,30.31,SW,221,2.0,3.0,42,0.00,,---,0.00,VWS V14.01,2013-01-21 00:07:00,
2013-01-20 17:12:00,34.6,14.4,30.31,SW,220,3.0,8.0,43,0.00,,---,0.00,VWS V14.01,2013-01-21 00:12:00,
2013-01-20 17:17:00,34.0,14.9,30.33,SW,219,0.0,1.0,45,0.00,,---,0.00,VWS V14.01,2013-01-21 00:17:00,
2013-01-20 17:22:00,33.2,14.7,30.33,SW,219,0.0,2.0,46,0.00,,---,0.00,VWS V14.01,2013-01-21 00:22:00,
2013-01-20 17:27:00,32.4,14.4,30.34,SW,220,0.0,6.0,47,0.00,,---,0.00,VWS V14.01,2013-01-21 00:27:00,
2013-01-20 17:32:00,32.2,14.7,30.35,SW,220,0.0,5.0,48,0.00,,---,0.00,VWS V14.01,2013-01-21 00:32:00,
2013-01-20 17:37:00,32.0,14.1,30.35,SW,219,0.0,1.0,47,0.00,,---,0.00,VWS V14.01,2013-01-21 00:37:00,
2013-01-20 17:42:00,31.6,13.7,30.36,SW,220,0.0,1.0,47,0.00,,---,0.00,VWS V14.01,2013-01-21 00:42:00,
2013-01-20 17:47:00,31.3,12.9,30.36,SW,219,0.0,4.0,46,0.00,,---,0.00,VWS V14.01,2013-01-21 00:47:00,
2013-01-20 17:52:00,31.3,12.9,30.36,SW,220,0.0,0.0,46,0.00,,---,0.00,VWS V14.01,2013-01-21 00:52:00,
2013-01-20 17:58:00,31.2,12.8,30.37,SW,219,0.0,1.0,46,0.00,,---,0.00,VWS V14.01,2013-01-21 00:58:00,
2013-01-20 18:03:00,31.0,12.2,30.36,SW,220,0.0,2.0,45,0.00,,---,0.00,VWS V14.01,2013-01-21 01:03:00,
2013-01-20 18:08:00,31.2,11.3,30.43,SW,219,4.0,7.0,43,0.00,,---,0.00,VWS V14.01,2013-01-21 01:08:00,
2013-01-20 18:13:00,31.9,12.0,30.41,SW,219,2.0,5.0,43,0.00,,---,0.00,VWS V14.01,2013-01-21 01:13:00,
2013-01-20 18:18:00,31.7,11.8,30.41,SW,219,1.0,2.0,43,0.00,,---,0.00,VWS V14.01,2013-01-21 01:18:00,
2013-01-20 18:23:00,31.5,11.6,30.41,SW,219,0.0,1.0,43,0.00,,---,0.00,VWS V14.01,2013-01-21 01:23:00,
2013-01-20 18:28:00,31.0,12.2,30.42,SW,219,0.0,0.0,45,0.00,,---,0.00,VWS V14.01,2013-01-21 01:28:00,
2013-01-20 18:33:00,30.5,12.2,30.43,SW,219,0.0,2.0,46,0.00,,---,0.00,VWS V14.01,2013-01-21 01:33:00,
2013-01-20 18:38:00,29.9,11.6,30.43,SW,220,0.0,2.0,46,0.00,,---,0.00,VWS V14.01,2013-01-21 01:38:00,
2013-01-20 18:43:00,29.4,11.7,30.46,SW,219,0.0,0.0,47,0.00,,---,0.00,VWS V14.01,2013-01-21 01:43:00,
2013-01-20 18:48:00,29.0,11.3,30.46,SW,219,0.0,0.0,47,0.00,,---,0.00,VWS V14.01,2013-01-21 01:48:00,
2013-01-20 18:53:00,28.8,11.1,30.47,SW,219,0.0,0.0,47,0.00,,---,0.00,VWS V14.01,2013-01-21 01:53:00,
2013-01-20 18:58:00,28.6,10.9,30.47,SW,219,0.0,0.0,47,0.00,,---,0.00,VWS V14.01,2013-01-21 01:58:00,
2013-01-20 19:03:00,28.4,11.2,30.47,SW,219,0.0,0.0,48,0.00,,---,0.00,VWS V14.01,2013-01-21 02:03:00,
2013-01-20 19:08:00,28.3,10.7,30.45,SW,219,0.0,0.0,47,0.00,,---,0.00,VWS V14.01,2013-01-21 02:08:00,
2013-01-20 19:13:00,28.3,10.7,30.46,SW,219,0.0,0.0,47,0.00,,---,0.00,VWS V14.01,2013-01-21 02:13:00,
2013-01-20 19:18:00,28.1,10.9,30.46,SW,219,0.0,0.0,48,0.00,,---,0.00,VWS V14.01,2013-01-21 02:18:00,
2013-01-20 19:23:00,27.7,10.1,30.45,SW,219,0.0,0.0,47,0.00,,---,0.00,VWS V14.01,2013-01-21 02:23:00,
2013-01-20 19:28:00,27.3,9.7,30.47,SW,219,0.0,1.0,47,0.00,,---,0.00,VWS V14.01,2013-01-21 02:28:00,
2013-01-20 19:33:00,27.0,10.4,30.48,SW,219,0.0,1.0,49,0.00,,---,0.00,VWS V14.01,2013-01-21 02:33:00,
2013-01-20 19:38:00,26.6,10.5,30.48,SW,219,0.0,0.0,50,0.00,,---,0.00,VWS V14.01,2013-01-21 02:38:00,
2013-01-20 19:43:00,26.1,10.0,30.49,SW,219,0.0,0.0,50,0.00,,---,0.00,VWS V14.01,2013-01-21 02:43:00,
2013-01-20 19:48:00,25.7,10.1,30.49,SW,219,0.0,0.0,51,0.00,,---,0.00,VWS V14.01,2013-01-21 02:48:00,
2013-01-20 19:53:00,25.6,10.4,30.48,SW,219,0.0,0.0,52,0.00,,---,0.00,VWS V14.01,2013-01-21 02:53:00,
2013-01-20 19:58:00,25.4,10.2,30.50,SW,219,0.0,0.0,52,0.00,,---,0.00,VWS V14.01,2013-01-21 02:58:00,
2013-01-20 20:03:00,25.1,10.4,30.51,SW,220,0.0,0.0,53,0.00,,---,0.00,VWS V14.01,2013-01-21 03:03:00,
2013-01-20 20:08:00,24.2,10.0,30.38,SW,219,0.0,2.0,54,0.00,,---,0.00,VWS V14.01,2013-01-21 03:08:00,
2013-01-20 20:13:00,23.3,9.5,30.40,SW,219,1.0,2.0,55,0.00,,---,0.00,VWS V14.01,2013-01-21 03:13:00,
2013-01-20 20:18:00,22.9,9.6,30.40,SW,219,0.0,0.0,56,0.00,,---,0.00,VWS V14.01,2013-01-21 03:18:00,
2013-01-20 20:23:00,22.5,9.2,30.39,SW,219,0.0,0.0,56,0.00,,---,0.00,VWS V14.01,2013-01-21 03:23:00,
2013-01-20 20:28:00,21.8,8.5,30.40,SW,219,0.0,1.0,56,0.00,,---,0.00,VWS V14.01,2013-01-21 03:28:00,
2013-01-20 20:33:00,21.3,8.4,30.42,SW,219,0.0,1.0,57,0.00,,---,0.00,VWS V14.01,2013-01-21 03:33:00,
2013-01-20 20:38:00,20.9,8.5,30.42,SW,219,0.0,1.0,58,0.00,,---,0.00,VWS V14.01,2013-01-21 03:38:00,
2013-01-20 20:43:00,21.2,8.4,30.42,SW,219,1.0,1.0,57,0.00,,---,0.00,VWS V14.01,2013-01-21 03:43:00,
2013-01-20 20:48:00,21.4,8.6,30.43,SW,219,0.0,0.0,57,0.00,,---,0.00,VWS V14.01,2013-01-21 03:48:00,
2013-01-20 20:53:00,21.2,8.7,30.43,SW,219,0.0,1.0,58,0.00,,---,0.00,VWS V14.01,2013-01-21 03:53:00,
2013-01-20 20:58:00,20.9,8.5,30.43,SW,219,0.0,0.0,58,0.00,,---,0.00,VWS V14.01,2013-01-21 03:58:00,
2013-01-20 21:03:00,20.7,8.6,30.43,SW,219,0.0,0.0,59,0.00,,---,0.00,VWS V14.01,2013-01-21 04:03:00,
2013-01-20 21:08:00,20.6,8.2,30.36,SW,219,0.0,1.0,58,0.00,,---,0.00,VWS V14.01,2013-01-21 04:08:00,
2013-01-20 21:13:00,20.4,8.4,30.38,SW,219,1.0,1.0,59,0.00,,---,0.00,VWS V14.01,2013-01-21 04:13:00,
2013-01-20 21:18:00,19.1,7.1,30.39,SW,219,1.0,1.0,59,0.00,,---,0.00,VWS V14.01,2013-01-21 04:18:00,
2013-01-20 21:23:00,16.8,5.0,30.41,SW,219,0.0,0.0,59,0.00,,---,0.00,VWS V14.01,2013-01-21 04:23:00,
2013-01-20 21:28:00,15.5,4.5,30.42,SW,219,0.0,0.0,61,0.00,,---,0.00,VWS V14.01,2013-01-21 04:28:00,
2013-01-20 21:33:00,15.2,5.2,30.42,SW,219,0.0,0.0,64,0.00,,---,0.00,VWS V14.01,2013-01-21 04:33:00,
2013-01-20 21:38:00,15.1,5.5,30.42,SW,219,0.0,0.0,65,0.00,,---,0.00,VWS V14.01,2013-01-21 04:38:00,
2013-01-20 21:43:00,15.0,5.7,30.42,SW,219,0.0,0.0,66,0.00,,---,0.00,VWS V14.01,2013-01-21 04:43:00,
2013-01-20 21:48:00,15.1,6.1,30.42,SW,219,0.0,0.0,67,0.00,,---,0.00,VWS V14.01,2013-01-21 04:48:00,
2013-01-20 21:53:00,15.2,6.6,30.42,SW,219,0.0,0.0,68,0.00,,---,0.00,VWS V14.01,2013-01-21 04:53:00,
2013-01-20 21:59:00,15.4,6.7,30.42,SW,219,0.0,1.0,68,0.00,,---,0.00,VWS V14.01,2013-01-21 04:59:00,
2013-01-20 22:01:00,15.5,6.8,30.42,SW,219,0.0,1.0,68,0.00,,---,0.00,VWS V14.01,2013-01-21 05:01:00,
2013-01-20 22:02:00,15.8,7.1,30.42,SW,219,1.0,2.0,68,0.00,,---,0.00,VWS V14.01,2013-01-21 05:02:00,
2013-01-20 22:07:00,16.2,6.8,30.37,SW,219,3.0,4.0,66,0.00,,---,0.00,VWS V14.01,2013-01-21 05:07:00,
2013-01-20 22:12:00,16.0,6.3,30.37,SW,219,0.0,2.0,65,0.00,,---,0.00,VWS V14.01,2013-01-21 05:12:00,
2013-01-20 22:18:00,15.6,6.3,30.36,SW,219,0.0,0.0,66,0.00,,---,0.00,VWS V14.01,2013-01-21 05:18:00,
2013-01-20 22:23:00,15.2,5.9,30.36,SW,219,0.0,0.0,66,0.00,,---,0.00,VWS V14.01,2013-01-21 05:23:00,
2013-01-20 22:28:00,14.7,5.4,30.36,SW,219,0.0,0.0,66,0.00,,---,0.00,VWS V14.01,2013-01-21 05:28:00,
2013-01-20 22:33:00,14.6,5.7,30.36,SW,219,0.0,0.0,67,0.00,,---,0.00,VWS V14.01,2013-01-21 05:33:00,
2013-01-20 22:38:00,14.8,6.2,30.37,SW,219,0.0,0.0,68,0.00,,---,0.00,VWS V14.01,2013-01-21 05:38:00,
2013-01-20 22:43:00,15.0,6.0,30.36,SW,219,0.0,0.0,67,0.00,,---,0.00,VWS V14.01,2013-01-21 05:43:00,
2013-01-20 22:48:00,15.3,6.3,30.36,SW,219,0.0,0.0,67,0.00,,---,0.00,VWS V14.01,2013-01-21 05:48:00,